sensor_id;sensor_type;location;lat;lon;timestamp;pressure;altitude;pressure_sealevel;temperature;humidity
52983;BME280;48698;45.736;13.926;2023-02-18T00:05:01;98632.81;;;5.03;100.00
52983;BME280;48698;45.736;13.926;2023-02-18T00:10:11;98833.75;;;6.41;100.00
52983;BME280;48698;45.736;13.926;2023-02-18T00:15:24;98842.44;;;5.90;100.00
52983;BME280;48698;45.736;13.926;2023-02-18T00:20:28;98835.69;;;5.66;100.00
52983;BME280;48698;45.736;13.926;2023-02-18T00:25:31;98745.66;;;5.31;100.00
52983;BME280;48698;45.736;13.926;2023-02-18T00:30:33;98665.47;;;4.89;100.00
52983;BME280;48698;45.736;13.926;2023-02-18T00:35:36;98712.59;;;5.10;100.00
52983;BME280;48698;45.736;13.926;2023-02-18T00:40:40;98838.69;;;6.06;100.00
52983;BME280;48698;45.736;13.926;2023-02-18T00:45:43;98574.25;;;4.18;100.00
52983;BME280;48698;45.736;13.926;2023-02-18T00:50:46;98842.69;;;5.68;100.00
52983;BME280;48698;45.736;13.926;2023-02-18T00:55:50;98747.50;;;5.26;100.00
52983;BME280;48698;45.736;13.926;2023-02-18T01:00:53;98828.63;;;5.69;100.00
52983;BME280;48698;45.736;13.926;2023-02-18T01:05:55;98601.25;;;4.32;100.00
52983;BME280;48698;45.736;13.926;2023-02-18T01:10:59;98842.47;;;5.87;100.00
52983;BME280;48698;45.736;13.926;2023-02-18T01:16:09;98836.44;;;5.74;100.00
52983;BME280;48698;45.736;13.926;2023-02-18T01:21:12;98685.00;;;4.69;100.00
52983;BME280;48698;45.736;13.926;2023-02-18T01:26:25;98778.91;;;5.42;100.00
52983;BME280;48698;45.736;13.926;2023-02-18T01:31:28;98656.91;;;4.72;100.00
52983;BME280;48698;45.736;13.926;2023-02-18T01:36:31;98706.31;;;5.20;100.00
52983;BME280;48698;45.736;13.926;2023-02-18T01:41:34;98736.78;;;5.39;100.00
52983;BME280;48698;45.736;13.926;2023-02-18T01:46:36;98771.44;;;5.74;100.00
52983;BME280;48698;45.736;13.926;2023-02-18T01:51:43;98796.78;;;5.85;100.00
52983;BME280;48698;45.736;13.926;2023-02-18T01:57:00;98589.81;;;4.34;100.00
52983;BME280;48698;45.736;13.926;2023-02-18T02:02:06;98781.06;;;5.77;100.00
52983;BME280;48698;45.736;13.926;2023-02-18T02:07:10;98615.13;;;4.46;100.00
52983;BME280;48698;45.736;13.926;2023-02-18T02:17:46;98793.63;;;5.58;100.00
52983;BME280;48698;45.736;13.926;2023-02-18T02:28:31;98708.72;;;4.66;100.00
52983;BME280;48698;45.736;13.926;2023-02-18T02:39:44;98782.06;;;5.67;100.00
52983;BME280;48698;45.736;13.926;2023-02-18T02:44:53;98779.47;;;5.65;100.00
52983;BME280;48698;45.736;13.926;2023-02-18T02:50:05;98672.88;;;5.25;100.00
52983;BME280;48698;45.736;13.926;2023-02-18T02:55:12;98653.13;;;4.91;100.00
52983;BME280;48698;45.736;13.926;2023-02-18T03:00:18;98684.72;;;4.94;100.00
52983;BME280;48698;45.736;13.926;2023-02-18T03:11:11;98673.56;;;4.74;100.00
52983;BME280;48698;45.736;13.926;2023-02-18T03:22:02;98639.50;;;4.58;100.00
52983;BME280;48698;45.736;13.926;2023-02-18T03:27:13;98768.09;;;5.60;100.00
52983;BME280;48698;45.736;13.926;2023-02-18T03:32:21;98642.78;;;4.80;100.00
52983;BME280;48698;45.736;13.926;2023-02-18T03:37:25;98761.94;;;5.61;100.00
52983;BME280;48698;45.736;13.926;2023-02-18T03:42:28;98600.72;;;4.77;100.00
52983;BME280;48698;45.736;13.926;2023-02-18T03:47:32;98705.19;;;5.38;100.00
52983;BME280;48698;45.736;13.926;2023-02-18T03:52:34;98729.03;;;5.30;100.00
52983;BME280;48698;45.736;13.926;2023-02-18T03:57:38;98699.41;;;5.13;100.00
52983;BME280;48698;45.736;13.926;2023-02-18T04:02:41;98775.97;;;5.63;100.00
52983;BME280;48698;45.736;13.926;2023-02-18T04:07:43;98723.72;;;5.33;100.00
52983;BME280;48698;45.736;13.926;2023-02-18T04:12:46;98699.59;;;4.95;100.00
52983;BME280;48698;45.736;13.926;2023-02-18T04:17:49;98661.16;;;4.82;100.00
52983;BME280;48698;45.736;13.926;2023-02-18T04:22:52;98627.22;;;4.59;100.00
52983;BME280;48698;45.736;13.926;2023-02-18T04:27:55;98785.75;;;5.54;100.00
52983;BME280;48698;45.736;13.926;2023-02-18T04:32:58;98619.22;;;4.68;100.00
52983;BME280;48698;45.736;13.926;2023-02-18T04:38:11;98685.44;;;5.05;100.00
52983;BME280;48698;45.736;13.926;2023-02-18T04:43:17;98760.72;;;5.22;100.00
52983;BME280;48698;45.736;13.926;2023-02-18T04:48:20;98498.41;;;3.84;100.00
52983;BME280;48698;45.736;13.926;2023-02-18T04:53:23;98695.22;;;4.95;100.00
52983;BME280;48698;45.736;13.926;2023-02-18T04:58:26;98727.34;;;5.21;100.00
52983;BME280;48698;45.736;13.926;2023-02-18T05:03:29;98756.03;;;5.46;100.00
52983;BME280;48698;45.736;13.926;2023-02-18T05:08:32;98768.97;;;5.61;100.00
52983;BME280;48698;45.736;13.926;2023-02-18T05:13:35;98546.97;;;4.26;100.00
52983;BME280;48698;45.736;13.926;2023-02-18T05:18:38;98519.09;;;4.11;100.00
52983;BME280;48698;45.736;13.926;2023-02-18T05:23:41;98595.53;;;4.69;100.00
52983;BME280;48698;45.736;13.926;2023-02-18T05:28:44;98551.31;;;4.29;100.00
52983;BME280;48698;45.736;13.926;2023-02-18T05:33:47;98743.03;;;5.32;100.00
52983;BME280;48698;45.736;13.926;2023-02-18T05:38:50;98702.59;;;5.36;100.00
52983;BME280;48698;45.736;13.926;2023-02-18T05:43:53;98611.31;;;4.69;100.00
52983;BME280;48698;45.736;13.926;2023-02-18T05:49:18;98701.06;;;5.20;100.00
52983;BME280;48698;45.736;13.926;2023-02-18T05:54:21;98588.09;;;4.32;100.00
52983;BME280;48698;45.736;13.926;2023-02-18T05:59:25;98759.63;;;5.39;100.00
52983;BME280;48698;45.736;13.926;2023-02-18T06:04:29;98716.91;;;5.14;100.00
52983;BME280;48698;45.736;13.926;2023-02-18T06:09:31;98606.97;;;4.64;100.00
52983;BME280;48698;45.736;13.926;2023-02-18T06:14:34;98743.63;;;5.52;100.00
52983;BME280;48698;45.736;13.926;2023-02-18T06:19:37;98766.47;;;5.53;100.00
52983;BME280;48698;45.736;13.926;2023-02-18T06:24:39;98623.72;;;4.60;100.00
52983;BME280;48698;45.736;13.926;2023-02-18T06:29:42;98744.81;;;5.30;100.00
52983;BME280;48698;45.736;13.926;2023-02-18T06:34:55;98638.59;;;4.61;100.00
52983;BME280;48698;45.736;13.926;2023-02-18T06:39:58;98508.84;;;3.90;100.00
52983;BME280;48698;45.736;13.926;2023-02-18T06:45:08;98702.91;;;5.10;100.00
52983;BME280;48698;45.736;13.926;2023-02-18T06:50:11;98764.78;;;5.48;100.00
52983;BME280;48698;45.736;13.926;2023-02-18T06:55:18;98652.47;;;4.77;100.00
52983;BME280;48698;45.736;13.926;2023-02-18T07:00:23;98793.66;;;5.55;100.00
52983;BME280;48698;45.736;13.926;2023-02-18T07:05:26;98605.38;;;4.52;100.00
52983;BME280;48698;45.736;13.926;2023-02-18T07:10:29;98769.25;;;5.41;100.00
52983;BME280;48698;45.736;13.926;2023-02-18T07:15:37;98647.03;;;4.87;100.00
52983;BME280;48698;45.736;13.926;2023-02-18T07:20:40;98716.69;;;5.32;100.00
52983;BME280;48698;45.736;13.926;2023-02-18T07:25:43;98756.50;;;5.73;100.00
52983;BME280;48698;45.736;13.926;2023-02-18T07:30:52;98683.38;;;5.28;100.00
52983;BME280;48698;45.736;13.926;2023-02-18T07:35:56;98786.91;;;6.00;100.00
52983;BME280;48698;45.736;13.926;2023-02-18T07:40:59;98681.56;;;5.32;100.00
52983;BME280;48698;45.736;13.926;2023-02-18T07:46:05;98665.81;;;5.30;100.00
52983;BME280;48698;45.736;13.926;2023-02-18T07:51:10;98789.16;;;6.26;100.00
52983;BME280;48698;45.736;13.926;2023-02-18T07:56:13;98676.66;;;5.67;100.00
52983;BME280;48698;45.736;13.926;2023-02-18T08:01:16;98689.88;;;5.64;100.00
52983;BME280;48698;45.736;13.926;2023-02-18T08:06:26;98649.66;;;5.51;100.00
52983;BME280;48698;45.736;13.926;2023-02-18T08:11:30;98576.31;;;5.24;100.00
52983;BME280;48698;45.736;13.926;2023-02-18T08:16:33;98799.38;;;6.46;100.00
52983;BME280;48698;45.736;13.926;2023-02-18T08:21:36;98708.88;;;5.87;100.00
52983;BME280;48698;45.736;13.926;2023-02-18T08:26:39;98580.91;;;5.11;100.00
52983;BME280;48698;45.736;13.926;2023-02-18T08:31:59;98759.28;;;6.24;100.00
52983;BME280;48698;45.736;13.926;2023-02-18T08:37:03;98774.94;;;6.36;100.00
52983;BME280;48698;45.736;13.926;2023-02-18T08:42:07;98794.44;;;6.76;100.00
52983;BME280;48698;45.736;13.926;2023-02-18T08:47:18;98752.44;;;6.63;100.00
52983;BME280;48698;45.736;13.926;2023-02-18T08:52:41;98802.50;;;7.16;100.00
52983;BME280;48698;45.736;13.926;2023-02-18T08:57:55;98802.97;;;7.38;100.00
52983;BME280;48698;45.736;13.926;2023-02-18T09:02:58;98529.34;;;6.01;100.00
52983;BME280;48698;45.736;13.926;2023-02-18T09:08:02;98665.19;;;7.13;100.00
52983;BME280;48698;45.736;13.926;2023-02-18T09:13:05;98775.16;;;8.00;100.00
52983;BME280;48698;45.736;13.926;2023-02-18T09:18:09;98727.66;;;7.96;100.00
52983;BME280;48698;45.736;13.926;2023-02-18T09:23:13;98687.25;;;7.89;100.00
52983;BME280;48698;45.736;13.926;2023-02-18T09:28:17;98684.81;;;7.80;100.00
52983;BME280;48698;45.736;13.926;2023-02-18T09:33:21;98749.72;;;8.33;100.00
52983;BME280;48698;45.736;13.926;2023-02-18T09:38:25;98581.69;;;7.45;100.00
52983;BME280;48698;45.736;13.926;2023-02-18T09:43:39;98737.63;;;8.57;100.00
52983;BME280;48698;45.736;13.926;2023-02-18T09:48:46;98720.88;;;8.56;100.00
52983;BME280;48698;45.736;13.926;2023-02-18T09:54:00;98706.06;;;8.49;100.00
52983;BME280;48698;45.736;13.926;2023-02-18T09:59:05;98705.84;;;8.58;100.00
52983;BME280;48698;45.736;13.926;2023-02-18T10:04:26;98627.88;;;8.36;100.00
52983;BME280;48698;45.736;13.926;2023-02-18T10:09:35;98708.09;;;9.04;100.00
52983;BME280;48698;45.736;13.926;2023-02-18T10:14:49;98675.28;;;8.77;100.00
52983;BME280;48698;45.736;13.926;2023-02-18T10:19:55;98488.34;;;7.76;100.00
52983;BME280;48698;45.736;13.926;2023-02-18T10:25:02;98626.22;;;8.64;100.00
52983;BME280;48698;45.736;13.926;2023-02-18T10:31:04;98716.09;;;9.32;100.00
52983;BME280;48698;45.736;13.926;2023-02-18T10:35:53;98555.31;;;8.74;100.00
52983;BME280;48698;45.736;13.926;2023-02-18T10:46:41;98676.22;;;9.07;100.00
52983;BME280;48698;45.736;13.926;2023-02-18T10:51:50;98638.84;;;8.86;100.00
52983;BME280;48698;45.736;13.926;2023-02-18T10:57:17;98678.88;;;9.37;100.00
52983;BME280;48698;45.736;13.926;2023-02-18T11:02:23;98695.56;;;9.40;100.00
52983;BME280;48698;45.736;13.926;2023-02-18T11:07:32;98614.94;;;9.18;100.00
52983;BME280;48698;45.736;13.926;2023-02-18T11:12:47;98692.88;;;9.69;100.00
52983;BME280;48698;45.736;13.926;2023-02-18T11:17:55;98687.88;;;9.60;100.00
52983;BME280;48698;45.736;13.926;2023-02-18T11:33:40;98667.91;;;9.76;100.00
52983;BME280;48698;45.736;13.926;2023-02-18T11:38:54;98549.50;;;9.20;100.00
52983;BME280;48698;45.736;13.926;2023-02-18T11:44:00;98512.59;;;9.14;100.00
52983;BME280;48698;45.736;13.926;2023-02-18T11:49:20;98652.78;;;10.06;100.00
52983;BME280;48698;45.736;13.926;2023-02-18T11:54:26;98536.72;;;9.59;100.00
52983;BME280;48698;45.736;13.926;2023-02-18T11:59:42;98488.75;;;9.40;100.00
52983;BME280;48698;45.736;13.926;2023-02-18T12:04:51;98605.31;;;10.48;100.00
52983;BME280;48698;45.736;13.926;2023-02-18T12:10:03;98608.47;;;10.34;100.00
52983;BME280;48698;45.736;13.926;2023-02-18T12:15:28;98609.56;;;10.54;100.00
52983;BME280;48698;45.736;13.926;2023-02-18T12:21:14;98584.91;;;10.25;100.00
52983;BME280;48698;45.736;13.926;2023-02-18T12:58:22;98455.78;;;9.73;100.00
52983;BME280;48698;45.736;13.926;2023-02-18T13:09:07;98551.63;;;10.40;100.00
52983;BME280;48698;45.736;13.926;2023-02-18T13:14:29;98554.56;;;10.32;100.00
52983;BME280;48698;45.736;13.926;2023-02-18T13:19:51;98530.13;;;10.23;100.00
52983;BME280;48698;45.736;13.926;2023-02-18T13:24:57;98429.19;;;9.75;100.00
52983;BME280;48698;45.736;13.926;2023-02-18T13:30:18;98517.69;;;10.48;100.00
52983;BME280;48698;45.736;13.926;2023-02-18T13:35:46;98496.19;;;10.31;100.00
52983;BME280;48698;45.736;13.926;2023-02-18T13:40:54;98388.16;;;9.85;100.00
52983;BME280;48698;45.736;13.926;2023-02-18T13:46:14;98505.38;;;10.46;100.00
52983;BME280;48698;45.736;13.926;2023-02-18T13:51:32;98490.09;;;10.52;100.00
52983;BME280;48698;45.736;13.926;2023-02-18T13:56:40;98486.44;;;10.55;100.00
52983;BME280;48698;45.736;13.926;2023-02-18T14:01:50;98472.09;;;10.60;100.00
52983;BME280;48698;45.736;13.926;2023-02-18T14:12:40;98477.56;;;10.32;100.00
52983;BME280;48698;45.736;13.926;2023-02-18T14:44:52;98422.25;;;9.96;100.00
52983;BME280;48698;45.736;13.926;2023-02-18T14:50:03;98454.53;;;10.08;100.00
52983;BME280;48698;45.736;13.926;2023-02-18T14:55:17;98446.97;;;10.22;100.00
52983;BME280;48698;45.736;13.926;2023-02-18T15:00:24;98218.06;;;8.75;100.00
52983;BME280;48698;45.736;13.926;2023-02-18T15:05:31;98375.63;;;9.88;100.00
52983;BME280;48698;45.736;13.926;2023-02-18T15:11:06;98434.28;;;10.30;100.00
52983;BME280;48698;45.736;13.926;2023-02-18T15:16:26;98379.56;;;10.02;100.00
52983;BME280;48698;45.736;13.926;2023-02-18T15:21:39;98220.03;;;8.95;100.00
52983;BME280;48698;45.736;13.926;2023-02-18T15:26:45;98410.72;;;9.97;100.00
52983;BME280;48698;45.736;13.926;2023-02-18T15:31:54;98430.09;;;9.99;100.00
52983;BME280;48698;45.736;13.926;2023-02-18T15:37:01;98427.19;;;9.81;100.00
52983;BME280;48698;45.736;13.926;2023-02-18T15:42:08;98360.69;;;9.12;100.00
52983;BME280;48698;45.736;13.926;2023-02-18T15:47:15;98351.81;;;8.88;100.00
52983;BME280;48698;45.736;13.926;2023-02-18T15:52:31;98393.97;;;8.39;100.00
52983;BME280;48698;45.736;13.926;2023-02-18T15:57:37;98445.53;;;7.95;100.00
52983;BME280;48698;45.736;13.926;2023-02-18T16:03:43;98464.97;;;7.26;100.00
52983;BME280;48698;45.736;13.926;2023-02-18T16:08:26;98469.38;;;6.92;100.00
52983;BME280;48698;45.736;13.926;2023-02-18T16:13:30;98461.66;;;6.83;100.00
52983;BME280;48698;45.736;13.926;2023-02-18T16:18:37;98408.94;;;6.41;100.00
52983;BME280;48698;45.736;13.926;2023-02-18T16:29:12;98488.00;;;6.84;100.00
52983;BME280;48698;45.736;13.926;2023-02-18T16:34:30;98255.03;;;5.65;100.00
52983;BME280;48698;45.736;13.926;2023-02-18T16:39:34;98425.69;;;6.79;100.00
52983;BME280;48698;45.736;13.926;2023-02-18T16:44:57;98391.94;;;6.54;100.00
52983;BME280;48698;45.736;13.926;2023-02-18T16:50:00;98231.25;;;5.68;100.00
52983;BME280;48698;45.736;13.926;2023-02-18T16:55:15;98414.28;;;7.12;100.00
52983;BME280;48698;45.736;13.926;2023-02-18T17:00:19;98503.66;;;7.64;100.00
52983;BME280;48698;45.736;13.926;2023-02-18T17:05:27;98487.06;;;7.59;100.00
52983;BME280;48698;45.736;13.926;2023-02-18T17:10:30;98492.38;;;7.57;100.00
52983;BME280;48698;45.736;13.926;2023-02-18T17:15:34;98407.03;;;7.20;100.00
52983;BME280;48698;45.736;13.926;2023-02-18T17:20:37;98482.44;;;7.67;100.00
52983;BME280;48698;45.736;13.926;2023-02-18T17:25:42;98475.91;;;7.48;100.00
52983;BME280;48698;45.736;13.926;2023-02-18T17:30:52;98483.56;;;7.58;100.00
52983;BME280;48698;45.736;13.926;2023-02-18T17:35:58;98426.47;;;7.17;100.00
52983;BME280;48698;45.736;13.926;2023-02-18T17:41:02;98421.69;;;7.32;100.00
52983;BME280;48698;45.736;13.926;2023-02-18T17:46:09;98482.44;;;7.67;100.00
52983;BME280;48698;45.736;13.926;2023-02-18T17:51:26;98480.72;;;7.31;100.00
52983;BME280;48698;45.736;13.926;2023-02-18T17:56:31;98270.50;;;5.81;100.00
52983;BME280;48698;45.736;13.926;2023-02-18T18:01:38;98468.50;;;6.90;100.00
52983;BME280;48698;45.736;13.926;2023-02-18T18:06:42;98477.69;;;7.12;100.00
52983;BME280;48698;45.736;13.926;2023-02-18T18:11:45;98462.50;;;6.85;100.00
52983;BME280;48698;45.736;13.926;2023-02-18T18:16:49;98239.81;;;5.38;100.00
52983;BME280;48698;45.736;13.926;2023-02-18T18:21:53;98460.91;;;6.38;100.00
52983;BME280;48698;45.736;13.926;2023-02-18T18:26:56;98506.56;;;6.41;100.00
52983;BME280;48698;45.736;13.926;2023-02-18T18:32:01;98397.81;;;5.41;100.00
52983;BME280;48698;45.736;13.926;2023-02-18T18:37:05;98423.66;;;5.67;100.00
52983;BME280;48698;45.736;13.926;2023-02-18T18:42:10;98483.09;;;5.83;100.00
52983;BME280;48698;45.736;13.926;2023-02-18T18:47:14;98497.09;;;5.88;100.00
52983;BME280;48698;45.736;13.926;2023-02-18T18:52:17;98484.53;;;5.53;100.00
52983;BME280;48698;45.736;13.926;2023-02-18T18:57:31;98392.91;;;5.21;100.00
52983;BME280;48698;45.736;13.926;2023-02-18T19:02:35;98422.69;;;4.72;100.00
52983;BME280;48698;45.736;13.926;2023-02-18T19:07:39;98457.53;;;4.89;100.00
52983;BME280;48698;45.736;13.926;2023-02-18T19:12:52;98342.31;;;3.97;100.00
52983;BME280;48698;45.736;13.926;2023-02-18T19:17:57;98514.06;;;4.63;100.00
52983;BME280;48698;45.736;13.926;2023-02-18T19:23:08;98458.38;;;4.31;100.00
52983;BME280;48698;45.736;13.926;2023-02-18T19:28:12;98514.47;;;4.94;100.00
52983;BME280;48698;45.736;13.926;2023-02-18T19:33:16;98288.75;;;3.42;100.00
52983;BME280;48698;45.736;13.926;2023-02-18T19:38:19;98515.19;;;5.04;100.00
52983;BME280;48698;45.736;13.926;2023-02-18T19:43:23;98257.84;;;2.93;100.00
52983;BME280;48698;45.736;13.926;2023-02-18T19:48:26;98419.66;;;3.77;100.00
52983;BME280;48698;45.736;13.926;2023-02-18T19:53:29;98436.41;;;4.35;100.00
52983;BME280;48698;45.736;13.926;2023-02-18T19:58:34;98545.03;;;5.04;100.00
52983;BME280;48698;45.736;13.926;2023-02-18T20:03:37;98321.19;;;4.03;100.00
52983;BME280;48698;45.736;13.926;2023-02-18T20:08:41;98523.97;;;5.04;100.00
52983;BME280;48698;45.736;13.926;2023-02-18T20:13:46;98465.47;;;4.86;100.00
52983;BME280;48698;45.736;13.926;2023-02-18T20:18:50;98489.16;;;4.86;100.00
52983;BME280;48698;45.736;13.926;2023-02-18T20:23:53;98510.84;;;5.01;100.00
52983;BME280;48698;45.736;13.926;2023-02-18T20:28:57;98425.00;;;4.35;100.00
52983;BME280;48698;45.736;13.926;2023-02-18T20:34:01;98524.72;;;5.11;100.00
52983;BME280;48698;45.736;13.926;2023-02-18T20:39:04;98439.75;;;4.45;100.00
52983;BME280;48698;45.736;13.926;2023-02-18T20:44:19;98551.63;;;5.33;100.00
52983;BME280;48698;45.736;13.926;2023-02-18T20:49:22;98535.22;;;5.14;100.00
52983;BME280;48698;45.736;13.926;2023-02-18T20:54:26;98453.81;;;5.02;100.00
52983;BME280;48698;45.736;13.926;2023-02-18T20:59:31;98274.09;;;3.88;100.00
52983;BME280;48698;45.736;13.926;2023-02-18T21:04:38;98288.84;;;4.00;100.00
52983;BME280;48698;45.736;13.926;2023-02-18T21:09:41;98539.59;;;5.70;100.00
52983;BME280;48698;45.736;13.926;2023-02-18T21:14:45;98530.09;;;5.58;100.00
52983;BME280;48698;45.736;13.926;2023-02-18T21:19:49;98544.16;;;5.57;100.00
52983;BME280;48698;45.736;13.926;2023-02-18T21:24:53;98272.81;;;4.15;100.00
52983;BME280;48698;45.736;13.926;2023-02-18T21:29:57;98514.34;;;5.55;100.00
52983;BME280;48698;45.736;13.926;2023-02-18T21:35:01;98529.66;;;5.86;100.00
52983;BME280;48698;45.736;13.926;2023-02-18T21:40:06;98511.31;;;5.78;100.00
52983;BME280;48698;45.736;13.926;2023-02-18T21:45:10;98447.59;;;5.06;100.00
52983;BME280;48698;45.736;13.926;2023-02-18T21:50:19;98471.13;;;5.15;100.00
52983;BME280;48698;45.736;13.926;2023-02-18T21:55:22;98350.53;;;4.33;100.00
52983;BME280;48698;45.736;13.926;2023-02-18T22:00:27;98477.28;;;5.15;100.00
52983;BME280;48698;45.736;13.926;2023-02-18T22:05:38;98486.53;;;5.39;100.00
52983;BME280;48698;45.736;13.926;2023-02-18T22:10:44;98513.09;;;5.26;100.00
52983;BME280;48698;45.736;13.926;2023-02-18T22:15:54;98482.59;;;5.11;100.00
52983;BME280;48698;45.736;13.926;2023-02-18T22:20:57;98518.69;;;5.59;100.00
52983;BME280;48698;45.736;13.926;2023-02-18T22:26:08;98512.81;;;5.42;100.00
52983;BME280;48698;45.736;13.926;2023-02-18T22:31:12;98504.59;;;5.60;100.00
52983;BME280;48698;45.736;13.926;2023-02-18T22:36:17;98323.69;;;4.66;100.00
52983;BME280;48698;45.736;13.926;2023-02-18T22:41:22;98442.81;;;5.28;100.00
52983;BME280;48698;45.736;13.926;2023-02-18T22:46:27;98354.66;;;4.50;100.00
52983;BME280;48698;45.736;13.926;2023-02-18T22:51:36;98504.97;;;5.39;100.00
52983;BME280;48698;45.736;13.926;2023-02-18T22:56:41;98504.84;;;5.47;100.00
52983;BME280;48698;45.736;13.926;2023-02-18T23:01:46;98399.97;;;4.67;100.00
52983;BME280;48698;45.736;13.926;2023-02-18T23:06:51;98441.94;;;5.30;100.00
52983;BME280;48698;45.736;13.926;2023-02-18T23:11:56;98514.06;;;5.70;100.00
52983;BME280;48698;45.736;13.926;2023-02-18T23:17:02;98491.59;;;5.51;100.00
52983;BME280;48698;45.736;13.926;2023-02-18T23:22:28;98514.25;;;5.61;100.00
52983;BME280;48698;45.736;13.926;2023-02-18T23:27:32;98444.69;;;5.21;100.00
52983;BME280;48698;45.736;13.926;2023-02-18T23:32:36;98448.19;;;5.23;100.00
52983;BME280;48698;45.736;13.926;2023-02-18T23:37:50;98392.19;;;5.12;100.00
52983;BME280;48698;45.736;13.926;2023-02-18T23:43:06;98532.31;;;5.81;100.00
52983;BME280;48698;45.736;13.926;2023-02-18T23:48:09;98425.31;;;5.25;100.00
52983;BME280;48698;45.736;13.926;2023-02-18T23:53:13;98424.13;;;5.43;100.00
52983;BME280;48698;45.736;13.926;2023-02-18T23:58:20;98503.47;;;5.73;100.00
